sensor_id;sensor_type;location;lat;lon;timestamp;temperature;humidity
32097;DHT22;18610;49.916;8.284;2023-02-16T00:01:25;2.50;99.90
32097;DHT22;18610;49.916;8.284;2023-02-16T00:03:53;2.50;99.90
32097;DHT22;18610;49.916;8.284;2023-02-16T00:06:20;2.40;99.90
32097;DHT22;18610;49.916;8.284;2023-02-16T00:08:48;2.40;99.90
32097;DHT22;18610;49.916;8.284;2023-02-16T00:11:18;2.40;99.90
32097;DHT22;18610;49.916;8.284;2023-02-16T00:14:07;2.40;99.90
32097;DHT22;18610;49.916;8.284;2023-02-16T00:16:35;2.50;99.90
32097;DHT22;18610;49.916;8.284;2023-02-16T00:19:14;2.40;99.90
32097;DHT22;18610;49.916;8.284;2023-02-16T00:21:41;2.40;99.90
32097;DHT22;18610;49.916;8.284;2023-02-16T00:24:08;2.40;99.90
32097;DHT22;18610;49.916;8.284;2023-02-16T00:26:34;2.40;99.90
32097;DHT22;18610;49.916;8.284;2023-02-16T00:29:01;2.40;99.90
32097;DHT22;18610;49.916;8.284;2023-02-16T00:31:29;2.50;99.90
32097;DHT22;18610;49.916;8.284;2023-02-16T00:33:57;2.50;99.90
32097;DHT22;18610;49.916;8.284;2023-02-16T00:36:24;2.50;99.90
32097;DHT22;18610;49.916;8.284;2023-02-16T00:38:51;2.50;99.90
32097;DHT22;18610;49.916;8.284;2023-02-16T00:41:19;2.40;99.90
32097;DHT22;18610;49.916;8.284;2023-02-16T00:44:05;2.40;99.90
32097;DHT22;18610;49.916;8.284;2023-02-16T00:46:33;2.40;99.90
32097;DHT22;18610;49.916;8.284;2023-02-16T00:49:00;2.40;99.90
32097;DHT22;18610;49.916;8.284;2023-02-16T00:51:26;2.50;99.90
32097;DHT22;18610;49.916;8.284;2023-02-16T00:53:53;2.50;99.90
32097;DHT22;18610;49.916;8.284;2023-02-16T00:56:20;2.50;99.90
32097;DHT22;18610;49.916;8.284;2023-02-16T00:58:49;2.50;99.90
32097;DHT22;18610;49.916;8.284;2023-02-16T01:01:20;2.60;99.90
32097;DHT22;18610;49.916;8.284;2023-02-16T01:03:50;2.60;99.90
32097;DHT22;18610;49.916;8.284;2023-02-16T01:06:17;2.60;99.90
32097;DHT22;18610;49.916;8.284;2023-02-16T01:09:10;2.60;99.90
32097;DHT22;18610;49.916;8.284;2023-02-16T01:11:55;2.50;99.90
32097;DHT22;18610;49.916;8.284;2023-02-16T01:14:22;2.50;99.90
32097;DHT22;18610;49.916;8.284;2023-02-16T01:16:49;2.50;99.90
32097;DHT22;18610;49.916;8.284;2023-02-16T01:19:18;2.50;99.90
32097;DHT22;18610;49.916;8.284;2023-02-16T01:21:44;2.40;99.90
32097;DHT22;18610;49.916;8.284;2023-02-16T01:24:11;2.40;99.90
32097;DHT22;18610;49.916;8.284;2023-02-16T01:26:40;2.30;99.90
32097;DHT22;18610;49.916;8.284;2023-02-16T01:29:13;2.40;99.90
32097;DHT22;18610;49.916;8.284;2023-02-16T01:31:40;2.40;99.90
32097;DHT22;18610;49.916;8.284;2023-02-16T01:34:06;2.30;99.90
32097;DHT22;18610;49.916;8.284;2023-02-16T01:36:36;2.30;99.90
32097;DHT22;18610;49.916;8.284;2023-02-16T01:39:04;2.30;99.90
32097;DHT22;18610;49.916;8.284;2023-02-16T01:41:48;2.30;99.90
32097;DHT22;18610;49.916;8.284;2023-02-16T01:44:20;2.30;99.90
32097;DHT22;18610;49.916;8.284;2023-02-16T01:46:50;2.30;99.90
32097;DHT22;18610;49.916;8.284;2023-02-16T01:49:19;2.30;99.90
32097;DHT22;18610;49.916;8.284;2023-02-16T01:51:55;2.30;99.90
32097;DHT22;18610;49.916;8.284;2023-02-16T01:54:32;2.30;99.90
32097;DHT22;18610;49.916;8.284;2023-02-16T01:57:04;2.30;99.90
32097;DHT22;18610;49.916;8.284;2023-02-16T01:59:39;2.30;99.90
32097;DHT22;18610;49.916;8.284;2023-02-16T02:02:11;2.30;99.90
32097;DHT22;18610;49.916;8.284;2023-02-16T02:04:43;2.30;99.90
32097;DHT22;18610;49.916;8.284;2023-02-16T02:07:33;2.20;99.90
32097;DHT22;18610;49.916;8.284;2023-02-16T02:10:05;2.30;99.90
32097;DHT22;18610;49.916;8.284;2023-02-16T02:12:45;2.30;99.90
32097;DHT22;18610;49.916;8.284;2023-02-16T02:15:14;2.30;99.90
32097;DHT22;18610;49.916;8.284;2023-02-16T02:17:42;2.30;99.90
32097;DHT22;18610;49.916;8.284;2023-02-16T02:20:15;2.30;99.90
32097;DHT22;18610;49.916;8.284;2023-02-16T02:29:24;2.40;99.90
32097;DHT22;18610;49.916;8.284;2023-02-16T02:32:00;2.40;99.90
32097;DHT22;18610;49.916;8.284;2023-02-16T02:34:40;2.40;99.90
32097;DHT22;18610;49.916;8.284;2023-02-16T02:37:14;2.40;99.90
32097;DHT22;18610;49.916;8.284;2023-02-16T02:39:50;2.30;99.90
32097;DHT22;18610;49.916;8.284;2023-02-16T02:42:30;2.30;99.90
32097;DHT22;18610;49.916;8.284;2023-02-16T02:45:04;2.30;99.90
32097;DHT22;18610;49.916;8.284;2023-02-16T02:47:37;2.20;99.90
32097;DHT22;18610;49.916;8.284;2023-02-16T02:50:31;2.20;99.90
32097;DHT22;18610;49.916;8.284;2023-02-16T02:53:03;2.30;99.90
32097;DHT22;18610;49.916;8.284;2023-02-16T02:55:31;2.30;99.90
32097;DHT22;18610;49.916;8.284;2023-02-16T02:58:19;2.30;99.90
32097;DHT22;18610;49.916;8.284;2023-02-16T03:01:06;2.30;99.90
32097;DHT22;18610;49.916;8.284;2023-02-16T03:03:35;2.30;99.90
32097;DHT22;18610;49.916;8.284;2023-02-16T03:06:06;2.20;99.90
32097;DHT22;18610;49.916;8.284;2023-02-16T03:08:38;2.20;99.90
32097;DHT22;18610;49.916;8.284;2023-02-16T03:11:08;2.10;99.90
32097;DHT22;18610;49.916;8.284;2023-02-16T03:13:57;2.10;99.90
32097;DHT22;18610;49.916;8.284;2023-02-16T03:16:29;2.10;99.90
32097;DHT22;18610;49.916;8.284;2023-02-16T03:18:57;2.10;99.90
32097;DHT22;18610;49.916;8.284;2023-02-16T03:21:42;2.10;99.90
32097;DHT22;18610;49.916;8.284;2023-02-16T03:24:29;2.00;99.90
32097;DHT22;18610;49.916;8.284;2023-02-16T03:27:20;2.00;99.90
32097;DHT22;18610;49.916;8.284;2023-02-16T03:30:07;2.00;99.90
32097;DHT22;18610;49.916;8.284;2023-02-16T03:32:36;1.90;99.90
32097;DHT22;18610;49.916;8.284;2023-02-16T03:35:04;1.90;99.90
32097;DHT22;18610;49.916;8.284;2023-02-16T03:37:31;1.90;99.90
32097;DHT22;18610;49.916;8.284;2023-02-16T03:39:58;1.90;99.90
32097;DHT22;18610;49.916;8.284;2023-02-16T03:42:48;1.80;99.90
32097;DHT22;18610;49.916;8.284;2023-02-16T03:45:16;1.80;99.90
32097;DHT22;18610;49.916;8.284;2023-02-16T03:47:44;1.70;99.90
32097;DHT22;18610;49.916;8.284;2023-02-16T03:50:10;1.70;99.90
32097;DHT22;18610;49.916;8.284;2023-02-16T03:52:37;1.60;99.90
32097;DHT22;18610;49.916;8.284;2023-02-16T03:55:04;1.60;99.90
32097;DHT22;18610;49.916;8.284;2023-02-16T03:57:31;1.60;99.90
32097;DHT22;18610;49.916;8.284;2023-02-16T03:59:58;1.60;99.90
32097;DHT22;18610;49.916;8.284;2023-02-16T04:02:26;1.60;99.90
32097;DHT22;18610;49.916;8.284;2023-02-16T04:04:54;1.50;99.90
32097;DHT22;18610;49.916;8.284;2023-02-16T04:07:21;1.50;99.90
32097;DHT22;18610;49.916;8.284;2023-02-16T04:09:47;1.50;99.90
32097;DHT22;18610;49.916;8.284;2023-02-16T04:12:14;1.60;99.90
32097;DHT22;18610;49.916;8.284;2023-02-16T04:14:58;1.60;99.90
32097;DHT22;18610;49.916;8.284;2023-02-16T04:17:25;1.70;99.90
32097;DHT22;18610;49.916;8.284;2023-02-16T04:19:53;1.70;99.90
32097;DHT22;18610;49.916;8.284;2023-02-16T04:22:20;1.70;99.90
32097;DHT22;18610;49.916;8.284;2023-02-16T04:24:46;1.80;99.90
32097;DHT22;18610;49.916;8.284;2023-02-16T04:27:13;1.80;99.90
32097;DHT22;18610;49.916;8.284;2023-02-16T04:29:40;1.90;99.90
32097;DHT22;18610;49.916;8.284;2023-02-16T04:32:07;1.90;99.90
32097;DHT22;18610;49.916;8.284;2023-02-16T04:34:34;1.90;99.90
32097;DHT22;18610;49.916;8.284;2023-02-16T04:37:02;1.80;99.90
32097;DHT22;18610;49.916;8.284;2023-02-16T04:39:30;1.80;99.90
32097;DHT22;18610;49.916;8.284;2023-02-16T04:41:57;1.90;99.90
32097;DHT22;18610;49.916;8.284;2023-02-16T04:44:24;1.90;99.90
32097;DHT22;18610;49.916;8.284;2023-02-16T04:46:50;1.90;99.90
32097;DHT22;18610;49.916;8.284;2023-02-16T04:49:17;1.90;99.90
32097;DHT22;18610;49.916;8.284;2023-02-16T04:51:44;1.80;99.90
32097;DHT22;18610;49.916;8.284;2023-02-16T04:54:12;1.80;99.90
32097;DHT22;18610;49.916;8.284;2023-02-16T04:56:39;1.70;99.90
32097;DHT22;18610;49.916;8.284;2023-02-16T04:59:05;1.70;99.90
32097;DHT22;18610;49.916;8.284;2023-02-16T05:01:32;1.70;99.90
32097;DHT22;18610;49.916;8.284;2023-02-16T05:03:59;1.70;99.90
32097;DHT22;18610;49.916;8.284;2023-02-16T05:06:26;1.70;99.90
32097;DHT22;18610;49.916;8.284;2023-02-16T05:08:53;1.70;99.90
32097;DHT22;18610;49.916;8.284;2023-02-16T05:11:21;1.70;99.90
32097;DHT22;18610;49.916;8.284;2023-02-16T05:14:05;1.80;99.90
32097;DHT22;18610;49.916;8.284;2023-02-16T05:16:50;1.70;99.90
32097;DHT22;18610;49.916;8.284;2023-02-16T05:19:18;1.80;99.90
32097;DHT22;18610;49.916;8.284;2023-02-16T05:21:45;1.70;99.90
32097;DHT22;18610;49.916;8.284;2023-02-16T05:24:11;1.70;99.90
32097;DHT22;18610;49.916;8.284;2023-02-16T05:26:39;1.70;99.90
32097;DHT22;18610;49.916;8.284;2023-02-16T05:29:06;1.70;99.90
32097;DHT22;18610;49.916;8.284;2023-02-16T05:31:33;1.70;99.90
32097;DHT22;18610;49.916;8.284;2023-02-16T05:34:00;1.70;99.90
32097;DHT22;18610;49.916;8.284;2023-02-16T05:36:26;1.70;99.90
32097;DHT22;18610;49.916;8.284;2023-02-16T05:38:53;1.70;99.90
32097;DHT22;18610;49.916;8.284;2023-02-16T05:41:20;1.70;99.90
32097;DHT22;18610;49.916;8.284;2023-02-16T05:43:52;1.70;99.90
32097;DHT22;18610;49.916;8.284;2023-02-16T05:46:20;1.70;99.90
32097;DHT22;18610;49.916;8.284;2023-02-16T05:48:47;1.70;99.90
32097;DHT22;18610;49.916;8.284;2023-02-16T05:51:14;1.70;99.90
32097;DHT22;18610;49.916;8.284;2023-02-16T05:53:41;1.80;99.90
32097;DHT22;18610;49.916;8.284;2023-02-16T05:56:08;1.70;99.90
32097;DHT22;18610;49.916;8.284;2023-02-16T05:58:35;1.80;99.90
32097;DHT22;18610;49.916;8.284;2023-02-16T06:01:03;1.70;99.90
32097;DHT22;18610;49.916;8.284;2023-02-16T06:03:30;1.70;99.90
32097;DHT22;18610;49.916;8.284;2023-02-16T06:05:59;1.70;99.90
32097;DHT22;18610;49.916;8.284;2023-02-16T06:08:26;1.70;99.90
32097;DHT22;18610;49.916;8.284;2023-02-16T06:10:53;1.70;99.90
32097;DHT22;18610;49.916;8.284;2023-02-16T06:13:21;1.60;99.90
32097;DHT22;18610;49.916;8.284;2023-02-16T06:15:51;1.60;99.90
32097;DHT22;18610;49.916;8.284;2023-02-16T06:18:19;1.50;99.90
32097;DHT22;18610;49.916;8.284;2023-02-16T06:20:46;1.50;99.90
32097;DHT22;18610;49.916;8.284;2023-02-16T06:23:14;1.40;99.90
32097;DHT22;18610;49.916;8.284;2023-02-16T06:25:41;1.30;99.90
32097;DHT22;18610;49.916;8.284;2023-02-16T06:28:08;1.20;99.90
32097;DHT22;18610;49.916;8.284;2023-02-16T06:30:35;1.10;99.90
32097;DHT22;18610;49.916;8.284;2023-02-16T06:33:02;1.10;99.90
32097;DHT22;18610;49.916;8.284;2023-02-16T06:35:30;1.10;99.90
32097;DHT22;18610;49.916;8.284;2023-02-16T06:37:57;1.10;99.90
32097;DHT22;18610;49.916;8.284;2023-02-16T06:40:24;1.00;99.90
32097;DHT22;18610;49.916;8.284;2023-02-16T06:42:51;1.00;99.90
32097;DHT22;18610;49.916;8.284;2023-02-16T06:45:18;0.90;99.90
32097;DHT22;18610;49.916;8.284;2023-02-16T06:47:44;1.00;99.90
32097;DHT22;18610;49.916;8.284;2023-02-16T06:50:12;0.80;99.90
32097;DHT22;18610;49.916;8.284;2023-02-16T06:52:40;0.80;99.90
32097;DHT22;18610;49.916;8.284;2023-02-16T06:55:07;0.80;99.90
32097;DHT22;18610;49.916;8.284;2023-02-16T06:57:34;0.80;99.90
32097;DHT22;18610;49.916;8.284;2023-02-16T07:00:02;0.80;99.90
32097;DHT22;18610;49.916;8.284;2023-02-16T07:02:30;0.80;99.90
32097;DHT22;18610;49.916;8.284;2023-02-16T07:04:57;0.80;99.90
32097;DHT22;18610;49.916;8.284;2023-02-16T07:07:24;0.80;99.90
32097;DHT22;18610;49.916;8.284;2023-02-16T07:09:52;0.90;99.90
32097;DHT22;18610;49.916;8.284;2023-02-16T07:12:19;0.90;99.90
32097;DHT22;18610;49.916;8.284;2023-02-16T07:14:45;0.80;99.90
32097;DHT22;18610;49.916;8.284;2023-02-16T07:17:12;0.80;99.90
32097;DHT22;18610;49.916;8.284;2023-02-16T07:19:39;0.80;99.90
32097;DHT22;18610;49.916;8.284;2023-02-16T07:22:06;0.80;99.90
32097;DHT22;18610;49.916;8.284;2023-02-16T07:24:32;0.70;99.90
32097;DHT22;18610;49.916;8.284;2023-02-16T07:27:00;0.70;99.90
32097;DHT22;18610;49.916;8.284;2023-02-16T07:29:28;0.70;99.90
32097;DHT22;18610;49.916;8.284;2023-02-16T07:31:55;0.70;99.90
32097;DHT22;18610;49.916;8.284;2023-02-16T07:34:22;0.70;99.90
32097;DHT22;18610;49.916;8.284;2023-02-16T07:36:49;0.70;99.90
32097;DHT22;18610;49.916;8.284;2023-02-16T07:39:16;0.70;99.90
32097;DHT22;18610;49.916;8.284;2023-02-16T07:41:42;0.80;99.90
32097;DHT22;18610;49.916;8.284;2023-02-16T07:44:11;0.90;99.90
32097;DHT22;18610;49.916;8.284;2023-02-16T07:46:37;0.90;99.90
32097;DHT22;18610;49.916;8.284;2023-02-16T07:49:04;0.90;99.90
32097;DHT22;18610;49.916;8.284;2023-02-16T07:51:31;1.00;99.90
32097;DHT22;18610;49.916;8.284;2023-02-16T07:53:59;1.00;99.90
32097;DHT22;18610;49.916;8.284;2023-02-16T07:56:27;1.00;99.90
32097;DHT22;18610;49.916;8.284;2023-02-16T07:58:56;1.10;99.90
32097;DHT22;18610;49.916;8.284;2023-02-16T08:01:25;1.10;99.90
32097;DHT22;18610;49.916;8.284;2023-02-16T08:03:52;1.10;99.90
32097;DHT22;18610;49.916;8.284;2023-02-16T08:06:19;1.00;99.90
32097;DHT22;18610;49.916;8.284;2023-02-16T08:08:46;0.90;99.90
32097;DHT22;18610;49.916;8.284;2023-02-16T08:11:14;0.90;99.90
32097;DHT22;18610;49.916;8.284;2023-02-16T08:13:42;0.90;99.90
32097;DHT22;18610;49.916;8.284;2023-02-16T08:16:09;0.90;99.90
32097;DHT22;18610;49.916;8.284;2023-02-16T08:18:38;0.90;99.90
32097;DHT22;18610;49.916;8.284;2023-02-16T08:21:07;0.90;99.90
32097;DHT22;18610;49.916;8.284;2023-02-16T08:23:38;0.80;99.90
32097;DHT22;18610;49.916;8.284;2023-02-16T08:26:07;0.80;99.90
32097;DHT22;18610;49.916;8.284;2023-02-16T08:28:35;0.70;99.90
32097;DHT22;18610;49.916;8.284;2023-02-16T08:31:03;0.70;99.90
32097;DHT22;18610;49.916;8.284;2023-02-16T08:33:30;0.70;99.90
32097;DHT22;18610;49.916;8.284;2023-02-16T08:35:58;0.80;99.90
32097;DHT22;18610;49.916;8.284;2023-02-16T08:38:25;0.90;99.90
32097;DHT22;18610;49.916;8.284;2023-02-16T08:40:52;0.90;99.90
32097;DHT22;18610;49.916;8.284;2023-02-16T08:43:20;0.90;99.90
32097;DHT22;18610;49.916;8.284;2023-02-16T08:45:47;0.90;99.90
32097;DHT22;18610;49.916;8.284;2023-02-16T08:48:16;1.00;99.90
32097;DHT22;18610;49.916;8.284;2023-02-16T08:50:43;1.00;99.90
32097;DHT22;18610;49.916;8.284;2023-02-16T08:53:13;1.00;99.90
32097;DHT22;18610;49.916;8.284;2023-02-16T08:55:39;1.00;99.90
32097;DHT22;18610;49.916;8.284;2023-02-16T08:58:06;1.10;99.90
32097;DHT22;18610;49.916;8.284;2023-02-16T09:00:33;1.00;99.90
32097;DHT22;18610;49.916;8.284;2023-02-16T09:02:59;1.00;99.90
32097;DHT22;18610;49.916;8.284;2023-02-16T09:05:26;1.10;99.90
32097;DHT22;18610;49.916;8.284;2023-02-16T09:07:53;1.10;99.90
32097;DHT22;18610;49.916;8.284;2023-02-16T09:10:21;1.10;99.90
32097;DHT22;18610;49.916;8.284;2023-02-16T09:12:49;1.10;99.90
32097;DHT22;18610;49.916;8.284;2023-02-16T09:15:15;1.10;99.90
32097;DHT22;18610;49.916;8.284;2023-02-16T09:17:42;1.20;99.90
32097;DHT22;18610;49.916;8.284;2023-02-16T09:20:10;1.20;99.90
32097;DHT22;18610;49.916;8.284;2023-02-16T09:22:37;1.20;99.90
32097;DHT22;18610;49.916;8.284;2023-02-16T09:25:04;1.30;99.90
32097;DHT22;18610;49.916;8.284;2023-02-16T09:27:33;1.40;99.90
32097;DHT22;18610;49.916;8.284;2023-02-16T09:30:00;1.40;99.90
32097;DHT22;18610;49.916;8.284;2023-02-16T09:32:27;1.40;99.90
32097;DHT22;18610;49.916;8.284;2023-02-16T09:34:54;1.50;99.90
32097;DHT22;18610;49.916;8.284;2023-02-16T09:37:21;1.50;99.90
32097;DHT22;18610;49.916;8.284;2023-02-16T09:39:48;1.50;99.90
32097;DHT22;18610;49.916;8.284;2023-02-16T09:42:24;1.50;99.90
32097;DHT22;18610;49.916;8.284;2023-02-16T09:45:01;1.50;99.90
32097;DHT22;18610;49.916;8.284;2023-02-16T09:47:32;1.50;99.90
32097;DHT22;18610;49.916;8.284;2023-02-16T09:50:02;1.60;99.90
32097;DHT22;18610;49.916;8.284;2023-02-16T09:52:34;1.70;99.90
32097;DHT22;18610;49.916;8.284;2023-02-16T09:55:04;1.80;99.90
32097;DHT22;18610;49.916;8.284;2023-02-16T09:57:45;1.90;99.90
32097;DHT22;18610;49.916;8.284;2023-02-16T10:00:25;2.00;99.90
32097;DHT22;18610;49.916;8.284;2023-02-16T10:02:58;2.10;99.90
32097;DHT22;18610;49.916;8.284;2023-02-16T10:05:33;2.10;99.90
32097;DHT22;18610;49.916;8.284;2023-02-16T10:08:04;2.10;99.90
32097;DHT22;18610;49.916;8.284;2023-02-16T10:10:39;2.10;99.90
32097;DHT22;18610;49.916;8.284;2023-02-16T10:13:15;2.10;99.90
32097;DHT22;18610;49.916;8.284;2023-02-16T10:15:46;2.10;99.90
32097;DHT22;18610;49.916;8.284;2023-02-16T10:18:21;2.20;99.90
32097;DHT22;18610;49.916;8.284;2023-02-16T10:20:50;2.20;99.90
32097;DHT22;18610;49.916;8.284;2023-02-16T10:23:28;2.30;99.90
32097;DHT22;18610;49.916;8.284;2023-02-16T10:26:01;2.30;99.90
32097;DHT22;18610;49.916;8.284;2023-02-16T10:28:36;2.40;99.90
32097;DHT22;18610;49.916;8.284;2023-02-16T10:31:12;2.50;99.90
32097;DHT22;18610;49.916;8.284;2023-02-16T10:33:42;2.50;99.90
32097;DHT22;18610;49.916;8.284;2023-02-16T10:36:15;2.50;99.90
32097;DHT22;18610;49.916;8.284;2023-02-16T10:38:54;2.50;99.90
32097;DHT22;18610;49.916;8.284;2023-02-16T10:41:30;2.50;99.90
32097;DHT22;18610;49.916;8.284;2023-02-16T10:44:03;2.50;99.90
32097;DHT22;18610;49.916;8.284;2023-02-16T10:46:36;2.60;99.90
32097;DHT22;18610;49.916;8.284;2023-02-16T10:49:07;2.60;99.90
32097;DHT22;18610;49.916;8.284;2023-02-16T10:51:37;2.60;99.90
32097;DHT22;18610;49.916;8.284;2023-02-16T10:54:07;2.60;99.90
32097;DHT22;18610;49.916;8.284;2023-02-16T10:56:49;2.70;99.90
32097;DHT22;18610;49.916;8.284;2023-02-16T10:59:21;2.80;99.90
32097;DHT22;18610;49.916;8.284;2023-02-16T11:01:51;2.80;99.90
32097;DHT22;18610;49.916;8.284;2023-02-16T11:04:34;2.80;99.90
32097;DHT22;18610;49.916;8.284;2023-02-16T11:07:03;2.80;99.90
32097;DHT22;18610;49.916;8.284;2023-02-16T11:09:30;2.90;99.90
32097;DHT22;18610;49.916;8.284;2023-02-16T11:11:58;2.90;99.90
32097;DHT22;18610;49.916;8.284;2023-02-16T11:14:27;3.00;99.90
32097;DHT22;18610;49.916;8.284;2023-02-16T11:17:04;3.00;99.90
32097;DHT22;18610;49.916;8.284;2023-02-16T11:19:33;3.10;99.90
32097;DHT22;18610;49.916;8.284;2023-02-16T11:22:00;3.20;99.90
32097;DHT22;18610;49.916;8.284;2023-02-16T11:24:29;3.30;99.90
32097;DHT22;18610;49.916;8.284;2023-02-16T11:27:02;3.30;99.90
32097;DHT22;18610;49.916;8.284;2023-02-16T11:29:29;3.40;99.90
32097;DHT22;18610;49.916;8.284;2023-02-16T11:31:56;3.40;99.90
32097;DHT22;18610;49.916;8.284;2023-02-16T11:34:30;3.50;99.90
32097;DHT22;18610;49.916;8.284;2023-02-16T11:37:04;3.60;99.90
32097;DHT22;18610;49.916;8.284;2023-02-16T11:39:36;3.60;99.90
32097;DHT22;18610;49.916;8.284;2023-02-16T11:42:08;3.60;99.90
32097;DHT22;18610;49.916;8.284;2023-02-16T11:44:49;3.70;99.90
32097;DHT22;18610;49.916;8.284;2023-02-16T11:47:23;3.70;99.90
32097;DHT22;18610;49.916;8.284;2023-02-16T11:50:12;3.70;99.90
32097;DHT22;18610;49.916;8.284;2023-02-16T11:52:43;3.70;99.90
32097;DHT22;18610;49.916;8.284;2023-02-16T11:55:20;3.80;99.90
32097;DHT22;18610;49.916;8.284;2023-02-16T11:57:47;3.80;99.90
32097;DHT22;18610;49.916;8.284;2023-02-16T12:00:17;3.80;99.90
32097;DHT22;18610;49.916;8.284;2023-02-16T12:03:08;3.90;99.90
32097;DHT22;18610;49.916;8.284;2023-02-16T12:05:50;3.90;99.90
32097;DHT22;18610;49.916;8.284;2023-02-16T12:08:34;4.00;99.90
32097;DHT22;18610;49.916;8.284;2023-02-16T12:11:17;4.00;99.90
32097;DHT22;18610;49.916;8.284;2023-02-16T12:13:57;4.00;99.90
32097;DHT22;18610;49.916;8.284;2023-02-16T12:16:33;4.10;99.90
32097;DHT22;18610;49.916;8.284;2023-02-16T12:19:05;4.20;99.90
32097;DHT22;18610;49.916;8.284;2023-02-16T12:21:37;4.20;99.90
32097;DHT22;18610;49.916;8.284;2023-02-16T12:24:13;4.30;99.90
32097;DHT22;18610;49.916;8.284;2023-02-16T12:26:47;4.40;99.90
32097;DHT22;18610;49.916;8.284;2023-02-16T12:29:23;4.40;99.90
32097;DHT22;18610;49.916;8.284;2023-02-16T12:32:06;4.40;99.90
32097;DHT22;18610;49.916;8.284;2023-02-16T12:34:43;4.40;99.90
32097;DHT22;18610;49.916;8.284;2023-02-16T12:37:20;4.40;99.90
32097;DHT22;18610;49.916;8.284;2023-02-16T12:39:56;4.50;99.90
32097;DHT22;18610;49.916;8.284;2023-02-16T12:42:41;4.50;99.90
32097;DHT22;18610;49.916;8.284;2023-02-16T12:45:15;4.60;99.90
32097;DHT22;18610;49.916;8.284;2023-02-16T12:47:47;4.70;99.90
32097;DHT22;18610;49.916;8.284;2023-02-16T12:50:17;4.70;99.90
32097;DHT22;18610;49.916;8.284;2023-02-16T12:52:50;4.80;99.90
32097;DHT22;18610;49.916;8.284;2023-02-16T12:55:20;4.90;99.90
32097;DHT22;18610;49.916;8.284;2023-02-16T12:57:56;4.90;99.90
32097;DHT22;18610;49.916;8.284;2023-02-16T13:00:35;4.90;99.90
32097;DHT22;18610;49.916;8.284;2023-02-16T13:03:10;5.00;99.90
32097;DHT22;18610;49.916;8.284;2023-02-16T13:05:42;5.00;99.90
32097;DHT22;18610;49.916;8.284;2023-02-16T13:08:16;5.00;99.90
32097;DHT22;18610;49.916;8.284;2023-02-16T13:10:53;5.10;99.90
32097;DHT22;18610;49.916;8.284;2023-02-16T13:13:23;5.10;99.90
32097;DHT22;18610;49.916;8.284;2023-02-16T13:15:55;5.10;99.90
32097;DHT22;18610;49.916;8.284;2023-02-16T13:18:25;5.10;99.90
32097;DHT22;18610;49.916;8.284;2023-02-16T13:20:58;5.20;99.90
32097;DHT22;18610;49.916;8.284;2023-02-16T13:23:36;5.20;99.90
32097;DHT22;18610;49.916;8.284;2023-02-16T13:26:28;5.20;99.90
32097;DHT22;18610;49.916;8.284;2023-02-16T13:29:25;5.20;99.90
32097;DHT22;18610;49.916;8.284;2023-02-16T13:32:05;5.20;99.90
32097;DHT22;18610;49.916;8.284;2023-02-16T13:35:00;5.20;99.90
32097;DHT22;18610;49.916;8.284;2023-02-16T13:37:54;5.20;99.90
32097;DHT22;18610;49.916;8.284;2023-02-16T13:40:46;5.20;99.90
32097;DHT22;18610;49.916;8.284;2023-02-16T13:43:28;5.30;99.90
32097;DHT22;18610;49.916;8.284;2023-02-16T13:45:58;5.30;99.90
32097;DHT22;18610;49.916;8.284;2023-02-16T13:48:27;5.30;99.90
32097;DHT22;18610;49.916;8.284;2023-02-16T13:50:57;5.30;99.90
32097;DHT22;18610;49.916;8.284;2023-02-16T13:53:29;5.30;99.90
32097;DHT22;18610;49.916;8.284;2023-02-16T13:56:17;5.30;99.90
32097;DHT22;18610;49.916;8.284;2023-02-16T13:58:47;5.40;99.90
32097;DHT22;18610;49.916;8.284;2023-02-16T14:01:35;5.40;99.90
32097;DHT22;18610;49.916;8.284;2023-02-16T14:04:04;5.40;99.90
32097;DHT22;18610;49.916;8.284;2023-02-16T14:06:34;5.50;99.90
32097;DHT22;18610;49.916;8.284;2023-02-16T14:09:31;5.50;99.90
32097;DHT22;18610;49.916;8.284;2023-02-16T14:12:12;5.50;99.90
32097;DHT22;18610;49.916;8.284;2023-02-16T14:14:45;5.50;99.90
32097;DHT22;18610;49.916;8.284;2023-02-16T14:17:24;5.50;99.90
32097;DHT22;18610;49.916;8.284;2023-02-16T14:19:53;5.50;99.90
32097;DHT22;18610;49.916;8.284;2023-02-16T14:22:23;5.50;99.90
32097;DHT22;18610;49.916;8.284;2023-02-16T14:24:54;5.60;99.90
32097;DHT22;18610;49.916;8.284;2023-02-16T14:27:45;5.70;99.90
32097;DHT22;18610;49.916;8.284;2023-02-16T14:30:23;5.80;99.90
32097;DHT22;18610;49.916;8.284;2023-02-16T14:32:57;5.80;99.90
32097;DHT22;18610;49.916;8.284;2023-02-16T14:35:29;5.90;99.90
32097;DHT22;18610;49.916;8.284;2023-02-16T14:37:59;6.00;99.90
32097;DHT22;18610;49.916;8.284;2023-02-16T14:40:44;6.00;99.90
32097;DHT22;18610;49.916;8.284;2023-02-16T14:43:24;6.00;99.90
32097;DHT22;18610;49.916;8.284;2023-02-16T14:49:39;6.00;99.90
32097;DHT22;18610;49.916;8.284;2023-02-16T14:52:29;6.00;99.90
32097;DHT22;18610;49.916;8.284;2023-02-16T14:57:58;6.10;99.90
32097;DHT22;18610;49.916;8.284;2023-02-16T15:00:29;6.10;99.90
32097;DHT22;18610;49.916;8.284;2023-02-16T15:03:00;6.10;99.90
32097;DHT22;18610;49.916;8.284;2023-02-16T15:05:30;6.10;99.90
32097;DHT22;18610;49.916;8.284;2023-02-16T15:08:04;6.10;99.90
32097;DHT22;18610;49.916;8.284;2023-02-16T15:10:36;6.00;99.90
32097;DHT22;18610;49.916;8.284;2023-02-16T15:13:03;6.00;99.90
32097;DHT22;18610;49.916;8.284;2023-02-16T15:15:41;6.00;99.90
32097;DHT22;18610;49.916;8.284;2023-02-16T15:18:13;6.00;99.90
32097;DHT22;18610;49.916;8.284;2023-02-16T15:20:42;6.00;99.90
32097;DHT22;18610;49.916;8.284;2023-02-16T15:23:16;6.00;99.90
32097;DHT22;18610;49.916;8.284;2023-02-16T15:25:52;6.00;99.90
32097;DHT22;18610;49.916;8.284;2023-02-16T15:28:22;6.00;99.90
32097;DHT22;18610;49.916;8.284;2023-02-16T15:30:53;5.90;99.90
32097;DHT22;18610;49.916;8.284;2023-02-16T15:33:34;6.00;99.90
32097;DHT22;18610;49.916;8.284;2023-02-16T15:36:04;6.00;99.90
32097;DHT22;18610;49.916;8.284;2023-02-16T15:38:35;6.00;99.90
32097;DHT22;18610;49.916;8.284;2023-02-16T15:41:04;6.00;99.90
32097;DHT22;18610;49.916;8.284;2023-02-16T15:43:33;6.00;99.90
32097;DHT22;18610;49.916;8.284;2023-02-16T15:46:05;6.00;99.90
32097;DHT22;18610;49.916;8.284;2023-02-16T15:48:34;6.10;99.90
32097;DHT22;18610;49.916;8.284;2023-02-16T15:51:06;6.10;99.90
32097;DHT22;18610;49.916;8.284;2023-02-16T15:53:40;6.00;99.90
32097;DHT22;18610;49.916;8.284;2023-02-16T15:56:21;6.00;99.90
32097;DHT22;18610;49.916;8.284;2023-02-16T15:58:51;6.00;99.90
32097;DHT22;18610;49.916;8.284;2023-02-16T16:01:25;6.00;99.90
32097;DHT22;18610;49.916;8.284;2023-02-16T16:03:59;6.10;99.90
32097;DHT22;18610;49.916;8.284;2023-02-16T16:06:34;6.10;99.90
32097;DHT22;18610;49.916;8.284;2023-02-16T16:09:03;6.10;99.90
32097;DHT22;18610;49.916;8.284;2023-02-16T16:11:33;6.10;99.90
32097;DHT22;18610;49.916;8.284;2023-02-16T16:14:01;6.10;99.90
32097;DHT22;18610;49.916;8.284;2023-02-16T16:16:32;6.10;99.90
32097;DHT22;18610;49.916;8.284;2023-02-16T16:19:06;6.10;99.90
32097;DHT22;18610;49.916;8.284;2023-02-16T16:21:34;6.10;99.90
32097;DHT22;18610;49.916;8.284;2023-02-16T16:24:05;6.10;99.90
32097;DHT22;18610;49.916;8.284;2023-02-16T16:26:34;6.10;99.90